createdAt,value
2023-03-29T00:00:14.104Z,94.21
2023-03-29T00:03:03.970Z,94.72
2023-03-29T00:05:35.107Z,94.65
2023-03-29T00:08:04.377Z,94.62
2023-03-29T00:10:32.736Z,94.59
2023-03-29T00:13:02.062Z,94.65
2023-03-29T00:15:29.760Z,94.72
2023-03-29T00:17:58.143Z,94.59
2023-03-29T00:20:26.004Z,94.64
2023-03-29T00:22:53.695Z,94.66
2023-03-29T00:25:21.334Z,94.57
2023-03-29T00:27:49.219Z,94.63
2023-03-29T00:30:17.492Z,94.76
2023-03-29T00:32:45.991Z,94.63
2023-03-29T00:35:13.699Z,94.60
2023-03-29T00:37:41.436Z,94.65
2023-03-29T00:40:11.716Z,94.69
2023-03-29T00:42:39.342Z,94.75
2023-03-29T00:45:10.056Z,94.75
2023-03-29T00:47:41.735Z,94.93
2023-03-29T00:50:29.698Z,94.81
2023-03-29T00:53:07.191Z,94.91
2023-03-29T00:55:47.603Z,95.04
2023-03-29T00:58:20.276Z,95.21
2023-03-29T01:00:52.976Z,95.25
2023-03-29T01:03:27.436Z,95.26
2023-03-29T01:06:06.122Z,95.42
2023-03-29T01:08:41.915Z,95.50
2023-03-29T01:11:22.174Z,95.53
2023-03-29T01:14:00.149Z,95.57
2023-03-29T01:16:29.059Z,95.74
2023-03-29T01:19:00.429Z,95.77
2023-03-29T01:21:37.893Z,95.83
2023-03-29T01:24:25.304Z,95.72
2023-03-29T01:27:13.965Z,95.80
2023-03-29T01:29:51.639Z,95.99
2023-03-29T01:32:25.056Z,96.07
2023-03-29T01:34:58.723Z,96.14
2023-03-29T01:37:29.281Z,96.04
2023-03-29T01:39:56.926Z,96.01
2023-03-29T01:42:48.615Z,95.99
2023-03-29T01:45:58.419Z,96.12
2023-03-29T01:48:32.290Z,96.25
2023-03-29T01:51:05.726Z,96.20
2023-03-29T01:53:40.960Z,96.13
2023-03-29T01:56:12.476Z,96.19
2023-03-29T01:58:44.706Z,96.10
2023-03-29T02:01:17.633Z,96.20
2023-03-29T02:03:49.881Z,96.34
2023-03-29T02:06:20.620Z,96.50
2023-03-29T02:08:48.919Z,96.62
2023-03-29T02:11:17.326Z,96.73
2023-03-29T02:13:44.940Z,96.94
2023-03-29T02:16:13.968Z,97.09
2023-03-29T02:18:44.472Z,97.12
2023-03-29T02:21:28.170Z,97.25
2023-03-29T02:23:58.970Z,97.11
2023-03-29T02:26:27.860Z,97.45
2023-03-29T02:28:56.062Z,97.70
2023-03-29T02:31:37.171Z,97.76
2023-03-29T02:34:19.844Z,97.69
2023-03-29T02:36:54.661Z,97.82
2023-03-29T02:39:24.372Z,97.92
2023-03-29T02:41:53.711Z,97.78
2023-03-29T02:44:24.652Z,97.85
2023-03-29T02:46:56.341Z,97.89
2023-03-29T02:49:24.643Z,97.87
2023-03-29T02:51:54.428Z,97.72
2023-03-29T02:54:25.968Z,97.88
2023-03-29T02:56:58.658Z,97.82
2023-03-29T02:59:27.292Z,97.88
2023-03-29T03:01:54.995Z,97.77
2023-03-29T03:04:23.575Z,97.71
2023-03-29T03:06:51.220Z,97.67
2023-03-29T03:09:19.179Z,97.51
2023-03-29T03:11:47.642Z,97.43
2023-03-29T03:14:16.803Z,97.39
2023-03-29T03:16:44.770Z,97.32
2023-03-29T03:19:12.561Z,97.25
2023-03-29T03:21:40.186Z,97.15
2023-03-29T03:24:07.826Z,97.06
2023-03-29T03:26:36.027Z,97.11
2023-03-29T03:29:05.414Z,97.01
2023-03-29T03:31:53.940Z,96.95
2023-03-29T03:34:40.829Z,96.99
2023-03-29T03:37:08.443Z,97.09
2023-03-29T03:39:36.817Z,96.93
2023-03-29T03:42:07.962Z,96.91
2023-03-29T03:44:39.428Z,96.96
2023-03-29T03:47:33.965Z,96.95
2023-03-29T03:50:18.563Z,97.07
2023-03-29T03:52:46.513Z,97.11
2023-03-29T03:55:14.507Z,97.21
2023-03-29T03:57:47.901Z,97.30
2023-03-29T04:00:20.258Z,97.33
2023-03-29T04:02:54.346Z,97.45
2023-03-29T04:05:22.251Z,97.49
2023-03-29T04:07:50.193Z,97.43
2023-03-29T04:10:56.816Z,97.57
2023-03-29T04:13:30.058Z,97.58
2023-03-29T04:16:24.285Z,97.81
2023-03-29T04:18:52.692Z,97.86
2023-03-29T04:21:22.728Z,98.13
2023-03-29T04:23:50.490Z,98.38
2023-03-29T04:26:18.313Z,98.46
2023-03-29T04:28:48.791Z,98.86
2023-03-29T04:31:21.839Z,98.90
2023-03-29T04:34:15.373Z,99.27
2023-03-29T04:36:46.332Z,99.66
2023-03-29T04:39:19.596Z,99.87
2023-03-29T04:41:50.342Z,99.82
2023-03-29T04:44:21.995Z,99.96
2023-03-29T04:46:49.994Z,99.94
2023-03-29T04:49:37.288Z,100.00
2023-03-29T04:52:09.036Z,100.00
2023-03-29T04:54:38.306Z,100.00
2023-03-29T04:57:17.801Z,100.00
2023-03-29T04:59:59.260Z,100.00
2023-03-29T05:02:51.557Z,100.00
2023-03-29T05:05:19.615Z,100.00
2023-03-29T05:07:47.921Z,99.91
2023-03-29T05:10:16.205Z,99.84
2023-03-29T05:12:44.427Z,99.93
2023-03-29T05:15:12.124Z,99.73
2023-03-29T05:17:39.911Z,99.63
2023-03-29T05:20:13.022Z,99.43
2023-03-29T05:22:41.579Z,99.36
2023-03-29T05:25:11.856Z,99.24
2023-03-29T05:27:41.532Z,99.08
2023-03-29T05:30:11.699Z,99.04
2023-03-29T05:32:50.981Z,99.14
2023-03-29T05:35:25.512Z,98.90
2023-03-29T05:37:53.790Z,98.97
2023-03-29T05:40:21.400Z,98.77
2023-03-29T05:43:15.356Z,98.58
2023-03-29T05:45:43.403Z,98.34
2023-03-29T05:48:11.509Z,98.38
2023-03-29T05:50:42.397Z,97.87
2023-03-29T05:53:10.946Z,97.76
2023-03-29T05:55:41.233Z,97.70
2023-03-29T05:58:12.981Z,97.41
2023-03-29T06:00:42.095Z,97.12
2023-03-29T06:03:27.327Z,97.06
2023-03-29T06:06:00.458Z,95.92
2023-03-29T06:08:29.224Z,95.83
2023-03-29T06:11:13.335Z,96.06
2023-03-29T06:13:59.885Z,95.47
2023-03-29T06:16:28.977Z,95.19
2023-03-29T06:18:56.655Z,94.66
2023-03-29T06:21:26.583Z,94.64
2023-03-29T06:23:55.037Z,93.60
2023-03-29T06:26:24.051Z,94.04
2023-03-29T06:28:52.721Z,94.41
2023-03-29T06:31:21.180Z,94.53
2023-03-29T06:33:51.141Z,93.58
2023-03-29T06:36:39.068Z,93.71
2023-03-29T06:39:07.138Z,93.39
2023-03-29T06:42:20.095Z,91.73
2023-03-29T06:45:16.894Z,91.81
2023-03-29T06:47:47.929Z,90.82
2023-03-29T06:50:17.242Z,90.94
2023-03-29T06:53:07.860Z,90.42
2023-03-29T06:55:36.284Z,89.24
2023-03-29T06:58:24.251Z,88.60
2023-03-29T07:00:53.865Z,89.51
2023-03-29T07:03:28.466Z,88.21
2023-03-29T07:06:03.560Z,87.48
2023-03-29T07:08:32.373Z,86.82
2023-03-29T07:11:03.710Z,86.42
2023-03-29T07:13:52.028Z,85.62
2023-03-29T07:16:21.830Z,84.57
2023-03-29T07:19:01.713Z,84.97
2023-03-29T07:21:49.295Z,83.01
2023-03-29T07:24:17.142Z,80.34
2023-03-29T07:27:00.289Z,81.20
2023-03-29T07:29:32.309Z,83.26
2023-03-29T07:32:00.247Z,83.02
2023-03-29T07:34:43.254Z,83.62
2023-03-29T07:37:17.239Z,81.85
2023-03-29T07:39:45.952Z,80.24
2023-03-29T07:42:36.943Z,80.02
2023-03-29T07:45:06.930Z,78.32
2023-03-29T07:47:38.374Z,77.23
2023-03-29T07:50:07.429Z,76.49
2023-03-29T07:52:36.762Z,77.90
2023-03-29T07:55:06.559Z,74.11
2023-03-29T07:57:54.899Z,75.66
2023-03-29T08:00:24.716Z,76.41
2023-03-29T08:03:07.340Z,75.85
2023-03-29T08:05:41.264Z,73.52
2023-03-29T08:08:15.306Z,73.10
2023-03-29T08:11:08.927Z,72.27
2023-03-29T08:13:53.819Z,74.46
2023-03-29T08:16:27.311Z,73.19
2023-03-29T08:19:08.619Z,72.38
2023-03-29T08:21:56.548Z,73.42
2023-03-29T08:24:25.268Z,73.34
2023-03-29T08:26:57.394Z,73.50
2023-03-29T08:29:27.048Z,71.85
2023-03-29T08:31:58.225Z,72.54
2023-03-29T08:34:25.948Z,72.65
2023-03-29T08:37:12.705Z,68.94
2023-03-29T08:39:44.199Z,68.75
2023-03-29T08:42:44.837Z,69.83
2023-03-29T08:45:27.036Z,67.85
2023-03-29T08:48:18.652Z,67.07
2023-03-29T08:50:52.842Z,66.15
2023-03-29T08:53:41.809Z,61.68
2023-03-29T08:56:24.968Z,66.15
2023-03-29T08:58:57.102Z,64.31
2023-03-29T09:01:30.231Z,62.12
2023-03-29T09:04:10.310Z,64.31
2023-03-29T09:06:48.662Z,63.10
2023-03-29T09:09:25.146Z,62.42
2023-03-29T09:12:04.386Z,61.88
2023-03-29T09:14:42.124Z,62.46
2023-03-29T09:17:19.311Z,62.29
2023-03-29T09:20:09.597Z,63.01
2023-03-29T09:23:12.353Z,62.69
2023-03-29T09:26:22.341Z,64.83
2023-03-29T09:29:02.846Z,64.49
2023-03-29T09:31:36.384Z,65.40
2023-03-29T09:34:18.663Z,65.18
2023-03-29T09:37:24.703Z,64.90
2023-03-29T09:39:53.390Z,63.40
2023-03-29T09:42:24.158Z,63.70
2023-03-29T09:44:54.618Z,64.58
2023-03-29T09:47:39.444Z,64.64
2023-03-29T09:50:27.784Z,62.70
2023-03-29T09:52:59.732Z,58.36
2023-03-29T09:55:31.250Z,57.42
2023-03-29T09:58:27.617Z,56.88
2023-03-29T10:01:00.860Z,58.29
2023-03-29T10:03:31.308Z,58.96
2023-03-29T10:06:08.594Z,57.77
2023-03-29T10:08:40.803Z,58.68
2023-03-29T10:11:18.346Z,59.18
2023-03-29T10:13:49.310Z,59.82
2023-03-29T10:16:38.388Z,58.40
2023-03-29T10:19:35.710Z,57.98
2023-03-29T10:22:14.152Z,58.59
2023-03-29T10:24:47.856Z,59.45
2023-03-29T10:27:19.828Z,59.70
2023-03-29T10:29:47.661Z,58.81
2023-03-29T10:32:36.760Z,56.67
2023-03-29T10:35:24.921Z,56.78
2023-03-29T10:37:56.388Z,55.38
2023-03-29T10:40:33.873Z,51.39
2023-03-29T10:43:12.901Z,55.59
2023-03-29T10:45:42.462Z,53.80
2023-03-29T10:48:12.998Z,52.30
2023-03-29T10:50:41.490Z,50.27
2023-03-29T10:53:26.207Z,51.86
2023-03-29T10:55:59.811Z,51.92
2023-03-29T10:58:56.691Z,52.72
2023-03-29T11:01:45.715Z,50.50
2023-03-29T11:04:23.941Z,49.74
2023-03-29T11:06:59.301Z,49.85
2023-03-29T11:10:04.407Z,50.63
2023-03-29T11:12:34.922Z,52.47
2023-03-29T11:15:14.647Z,51.46
2023-03-29T11:18:09.656Z,50.72
2023-03-29T11:20:55.877Z,48.78
2023-03-29T11:23:48.160Z,48.43
2023-03-29T11:26:22.520Z,48.55
2023-03-29T11:28:53.063Z,49.49
2023-03-29T11:31:31.088Z,50.07
2023-03-29T11:34:25.959Z,49.98
2023-03-29T11:36:59.379Z,48.21
2023-03-29T11:39:36.900Z,47.94
2023-03-29T11:42:11.845Z,48.84
2023-03-29T11:44:40.873Z,47.49
2023-03-29T11:47:13.323Z,47.70
2023-03-29T11:49:53.072Z,46.26
2023-03-29T11:52:47.202Z,48.76
2023-03-29T11:55:23.566Z,47.90
2023-03-29T11:57:59.989Z,46.18
2023-03-29T12:00:31.269Z,47.45
2023-03-29T12:03:34.416Z,48.13
2023-03-29T12:06:23.993Z,47.41
2023-03-29T12:09:05.358Z,47.27
2023-03-29T12:11:47.086Z,46.93
2023-03-29T12:14:26.717Z,46.65
2023-03-29T12:17:08.504Z,46.66
2023-03-29T12:19:43.707Z,46.96
2023-03-29T12:22:11.538Z,47.16
2023-03-29T12:24:45.884Z,46.87
2023-03-29T12:27:44.210Z,48.42
2023-03-29T12:30:39.988Z,48.22
2023-03-29T12:33:15.868Z,46.23
2023-03-29T12:36:47.480Z,46.09
2023-03-29T12:39:34.144Z,46.05
2023-03-29T12:42:22.789Z,46.69
2023-03-29T12:45:20.026Z,46.07
2023-03-29T12:47:50.983Z,46.54
2023-03-29T12:50:28.499Z,47.32
2023-03-29T12:53:33.402Z,48.68
2023-03-29T12:56:01.156Z,48.79
2023-03-29T12:58:42.908Z,48.95
2023-03-29T13:01:23.837Z,50.09
2023-03-29T13:04:00.448Z,48.58
2023-03-29T13:06:30.388Z,48.39
2023-03-29T13:09:31.122Z,48.02
2023-03-29T13:12:07.878Z,45.22
2023-03-29T13:14:37.524Z,45.34
2023-03-29T13:17:17.620Z,46.87
2023-03-29T13:20:19.978Z,46.43
2023-03-29T13:22:59.401Z,45.92
2023-03-29T13:25:41.170Z,46.45
2023-03-29T13:28:29.216Z,46.07
2023-03-29T13:31:17.533Z,47.02
2023-03-29T13:33:49.506Z,46.71
2023-03-29T13:36:23.369Z,47.50
2023-03-29T13:38:53.546Z,46.65
2023-03-29T13:41:31.199Z,46.42
2023-03-29T13:43:59.402Z,46.86
2023-03-29T13:46:41.059Z,46.35
2023-03-29T13:49:17.182Z,47.50
2023-03-29T13:52:12.591Z,47.10
2023-03-29T13:54:50.690Z,47.34
2023-03-29T13:57:41.798Z,47.85
2023-03-29T14:00:17.796Z,46.68
2023-03-29T14:02:57.576Z,46.84
2023-03-29T14:05:31.536Z,46.87
2023-03-29T14:08:06.823Z,47.35
2023-03-29T14:10:42.674Z,48.17
2023-03-29T14:13:14.876Z,48.29
2023-03-29T14:15:49.422Z,48.37
2023-03-29T14:18:19.906Z,47.90
2023-03-29T14:20:53.534Z,47.94
2023-03-29T14:23:26.197Z,46.55
2023-03-29T14:25:53.932Z,46.50
2023-03-29T14:28:24.399Z,46.56
2023-03-29T14:30:52.849Z,46.55
2023-03-29T14:33:34.359Z,46.40
2023-03-29T14:36:04.189Z,47.27
2023-03-29T14:38:32.250Z,47.67
2023-03-29T14:41:01.169Z,48.14
2023-03-29T14:43:31.910Z,48.50
2023-03-29T14:46:02.867Z,48.34
2023-03-29T14:48:33.138Z,48.43
2023-03-29T14:51:01.025Z,49.24
2023-03-29T14:53:31.961Z,48.90
2023-03-29T14:55:59.856Z,48.04
2023-03-29T14:58:36.875Z,46.57
2023-03-29T15:01:07.972Z,47.99
2023-03-29T15:03:43.966Z,47.72
2023-03-29T15:06:12.923Z,48.33
2023-03-29T15:08:48.232Z,49.05
2023-03-29T15:11:30.755Z,49.29
2023-03-29T15:14:03.208Z,49.16
2023-03-29T15:16:31.441Z,48.70
2023-03-29T15:19:01.545Z,50.28
2023-03-29T15:21:34.425Z,50.41
2023-03-29T15:24:03.579Z,50.34
2023-03-29T15:26:36.610Z,50.80
2023-03-29T15:29:13.840Z,50.89
2023-03-29T15:31:42.192Z,51.44
2023-03-29T15:34:14.790Z,51.78
2023-03-29T15:36:45.170Z,51.35
2023-03-29T15:39:14.388Z,50.92
2023-03-29T15:41:43.049Z,51.90
2023-03-29T15:44:11.241Z,52.41
2023-03-29T15:46:38.912Z,52.04
2023-03-29T15:49:11.150Z,51.28
2023-03-29T15:51:39.127Z,52.09
2023-03-29T15:54:07.783Z,52.56
2023-03-29T15:56:43.515Z,53.10
2023-03-29T15:59:12.325Z,53.36
2023-03-29T16:01:41.734Z,53.36
2023-03-29T16:04:16.566Z,53.79
2023-03-29T16:06:48.594Z,54.11
2023-03-29T16:09:16.872Z,53.86
2023-03-29T16:11:45.557Z,54.63
2023-03-29T16:14:23.156Z,54.73
2023-03-29T16:16:52.357Z,54.98
2023-03-29T16:19:20.141Z,55.29
2023-03-29T16:21:48.301Z,55.40
2023-03-29T16:24:19.597Z,55.19
2023-03-29T16:26:48.109Z,55.53
2023-03-29T16:29:18.736Z,55.84
2023-03-29T16:31:47.463Z,56.01
2023-03-29T16:34:16.371Z,55.99
2023-03-29T16:36:44.314Z,56.47
2023-03-29T16:39:15.992Z,56.28
2023-03-29T16:41:45.178Z,55.96
2023-03-29T16:44:18.603Z,56.01
2023-03-29T16:46:47.766Z,56.11
2023-03-29T16:49:18.073Z,56.29
2023-03-29T16:51:46.933Z,56.55
2023-03-29T16:54:17.106Z,56.82
2023-03-29T16:56:44.799Z,57.03
2023-03-29T16:59:12.625Z,56.90
2023-03-29T17:01:40.854Z,57.00
2023-03-29T17:04:09.017Z,57.02
2023-03-29T17:06:36.950Z,56.93
2023-03-29T17:09:05.261Z,57.45
2023-03-29T17:11:33.736Z,57.55
2023-03-29T17:14:01.622Z,57.58
2023-03-29T17:16:29.451Z,57.74
2023-03-29T17:19:00.415Z,57.75
2023-03-29T17:21:29.233Z,58.04
2023-03-29T17:23:57.303Z,57.83
2023-03-29T17:26:26.006Z,58.04
2023-03-29T17:28:53.944Z,58.36
2023-03-29T17:31:21.789Z,58.09
2023-03-29T17:33:52.194Z,58.38
2023-03-29T17:36:24.277Z,58.56
2023-03-29T17:38:52.275Z,58.95
2023-03-29T17:41:21.526Z,59.08
2023-03-29T17:43:50.959Z,59.18
2023-03-29T17:46:23.026Z,59.19
2023-03-29T17:48:51.256Z,59.66
2023-03-29T17:51:19.837Z,59.74
2023-03-29T17:53:47.490Z,60.06
2023-03-29T17:56:16.205Z,60.23
2023-03-29T17:58:44.005Z,60.31
2023-03-29T18:01:13.129Z,60.52
2023-03-29T18:03:41.370Z,60.48
2023-03-29T18:06:09.265Z,60.89
2023-03-29T18:08:37.519Z,61.04
2023-03-29T18:11:13.085Z,61.24
2023-03-29T18:13:41.026Z,61.47
2023-03-29T18:16:09.099Z,61.45
2023-03-29T18:18:38.493Z,61.83
2023-03-29T18:21:10.072Z,61.70
2023-03-29T18:23:43.101Z,61.90
2023-03-29T18:26:12.272Z,62.00
2023-03-29T18:28:40.438Z,61.88
2023-03-29T18:31:08.227Z,62.05
2023-03-29T18:33:36.359Z,62.08
2023-03-29T18:36:08.524Z,62.10
2023-03-29T18:38:40.654Z,61.98
2023-03-29T18:41:09.171Z,62.25
2023-03-29T18:43:38.802Z,62.33
2023-03-29T18:46:07.738Z,62.24
2023-03-29T18:48:38.960Z,61.97
2023-03-29T18:51:08.428Z,62.27
2023-03-29T18:53:37.520Z,62.29
2023-03-29T18:56:06.537Z,61.99
2023-03-29T18:58:35.006Z,62.22
2023-03-29T19:01:04.542Z,61.97
2023-03-29T19:03:34.418Z,62.35
2023-03-29T19:06:03.422Z,62.36
2023-03-29T19:08:32.976Z,62.03
2023-03-29T19:11:02.779Z,62.24
2023-03-29T19:13:30.459Z,62.02
2023-03-29T19:15:58.197Z,62.28
2023-03-29T19:18:26.400Z,62.41
2023-03-29T19:20:54.320Z,62.47
2023-03-29T19:23:27.246Z,62.28
2023-03-29T19:25:57.177Z,62.66
2023-03-29T19:28:24.999Z,62.53
2023-03-29T19:30:52.896Z,62.76
2023-03-29T19:33:20.786Z,62.67
2023-03-29T19:35:50.347Z,62.84
2023-03-29T19:38:19.220Z,62.93
2023-03-29T19:40:48.110Z,62.86
2023-03-29T19:43:20.718Z,62.97
2023-03-29T19:45:50.122Z,62.75
2023-03-29T19:48:23.687Z,62.89
2023-03-29T19:50:52.279Z,63.01
2023-03-29T19:53:19.945Z,62.92
2023-03-29T19:55:49.417Z,62.87
2023-03-29T19:58:17.081Z,62.63
2023-03-29T20:00:44.710Z,62.79
2023-03-29T20:03:14.078Z,62.83
2023-03-29T20:05:42.346Z,62.87
2023-03-29T20:08:09.949Z,62.88
2023-03-29T20:10:37.563Z,63.33
2023-03-29T20:13:06.637Z,63.24
2023-03-29T20:15:34.951Z,63.47
2023-03-29T20:18:03.497Z,63.53
2023-03-29T20:20:31.831Z,63.54
2023-03-29T20:23:04.689Z,63.94
2023-03-29T20:25:36.305Z,64.07
2023-03-29T20:28:04.735Z,64.31
2023-03-29T20:30:32.419Z,64.48
2023-03-29T20:33:00.228Z,64.46
2023-03-29T20:35:28.037Z,64.87
2023-03-29T20:37:56.120Z,64.98
2023-03-29T20:40:23.739Z,64.88
2023-03-29T20:42:51.443Z,65.02
2023-03-29T20:45:19.203Z,65.38
2023-03-29T20:47:57.590Z,65.38
2023-03-29T20:50:26.311Z,65.56
2023-03-29T20:52:54.660Z,65.80
2023-03-29T20:55:23.397Z,65.80
2023-03-29T20:57:54.143Z,66.11
2023-03-29T21:00:22.507Z,66.25
2023-03-29T21:02:50.312Z,66.35
2023-03-29T21:05:18.758Z,66.56
2023-03-29T21:07:48.003Z,66.51
2023-03-29T21:10:15.812Z,66.76
2023-03-29T21:12:43.445Z,66.90
2023-03-29T21:15:13.314Z,67.01
2023-03-29T21:17:41.357Z,67.05
2023-03-29T21:20:12.188Z,67.14
2023-03-29T21:22:40.630Z,67.18
2023-03-29T21:25:11.148Z,67.49
2023-03-29T21:27:38.771Z,67.69
2023-03-29T21:30:08.415Z,67.88
2023-03-29T21:32:37.256Z,67.95
2023-03-29T21:35:05.462Z,68.19
2023-03-29T21:37:33.058Z,68.38
2023-03-29T21:40:01.228Z,68.41
2023-03-29T21:42:28.820Z,68.50
2023-03-29T21:44:56.767Z,68.60
2023-03-29T21:47:24.412Z,68.54
2023-03-29T21:49:52.080Z,68.98
2023-03-29T21:52:20.292Z,68.82
2023-03-29T21:54:47.879Z,68.93
2023-03-29T21:57:15.672Z,69.30
2023-03-29T21:59:43.363Z,69.72
2023-03-29T22:02:11.070Z,69.86
2023-03-29T22:04:39.114Z,70.15
2023-03-29T22:07:08.230Z,70.42
2023-03-29T22:09:36.409Z,70.60
2023-03-29T22:12:04.782Z,71.25
2023-03-29T22:14:36.460Z,71.16
2023-03-29T22:17:08.308Z,71.30
2023-03-29T22:19:39.542Z,71.65
2023-03-29T22:22:13.557Z,71.60
2023-03-29T22:24:41.946Z,72.06
2023-03-29T22:27:11.058Z,71.91
2023-03-29T22:29:38.844Z,72.08
2023-03-29T22:32:06.901Z,72.01
2023-03-29T22:34:34.859Z,72.39
2023-03-29T22:37:02.478Z,72.06
2023-03-29T22:39:30.132Z,72.17
2023-03-29T22:41:57.814Z,72.36
2023-03-29T22:44:25.567Z,72.55
2023-03-29T22:46:53.166Z,72.48
2023-03-29T22:49:21.053Z,72.77
2023-03-29T22:51:49.478Z,72.52
2023-03-29T22:54:17.376Z,72.48
2023-03-29T22:56:45.205Z,72.66
2023-03-29T22:59:12.848Z,72.70
2023-03-29T23:01:40.544Z,72.44
2023-03-29T23:04:08.229Z,72.36
2023-03-29T23:06:35.950Z,72.58
2023-03-29T23:09:03.613Z,72.56
2023-03-29T23:11:31.699Z,72.65
2023-03-29T23:13:59.320Z,73.04
2023-03-29T23:16:26.997Z,72.77
2023-03-29T23:18:54.773Z,72.70
2023-03-29T23:21:22.950Z,72.71
2023-03-29T23:23:50.692Z,72.61
2023-03-29T23:26:18.608Z,72.77
2023-03-29T23:28:46.476Z,72.73
2023-03-29T23:31:18.372Z,73.09
2023-03-29T23:33:46.214Z,73.30
2023-03-29T23:36:16.302Z,73.29
2023-03-29T23:38:45.568Z,73.31
2023-03-29T23:41:13.821Z,73.66
2023-03-29T23:43:43.039Z,73.89
2023-03-29T23:46:14.169Z,73.82
2023-03-29T23:48:49.238Z,74.13
2023-03-29T23:51:18.863Z,74.47
2023-03-29T23:53:47.345Z,74.59
2023-03-29T23:56:15.232Z,74.56
2023-03-29T23:58:42.858Z,74.76
